sensor_id;sensor_type;location;lat;lon;timestamp;temperature;humidity
2441;DHT22;1231;53.988;9.470;2023-02-28T00:02:17;6.00;78.90
2441;DHT22;1231;53.988;9.470;2023-02-28T00:05:12;6.00;78.90
2441;DHT22;1231;53.988;9.470;2023-02-28T00:08:03;6.00;78.90
2441;DHT22;1231;53.988;9.470;2023-02-28T00:10:54;6.00;78.90
2441;DHT22;1231;53.988;9.470;2023-02-28T00:13:46;6.00;78.90
2441;DHT22;1231;53.988;9.470;2023-02-28T00:16:37;6.00;78.90
2441;DHT22;1231;53.988;9.470;2023-02-28T00:19:28;5.90;78.90
2441;DHT22;1231;53.988;9.470;2023-02-28T00:22:20;5.90;79.00
2441;DHT22;1231;53.988;9.470;2023-02-28T00:25:14;5.90;79.00
2441;DHT22;1231;53.988;9.470;2023-02-28T00:28:05;5.90;79.00
2441;DHT22;1231;53.988;9.470;2023-02-28T00:30:56;5.90;79.10
2441;DHT22;1231;53.988;9.470;2023-02-28T00:33:48;5.90;79.10
2441;DHT22;1231;53.988;9.470;2023-02-28T00:36:39;5.90;79.10
2441;DHT22;1231;53.988;9.470;2023-02-28T00:39:33;5.90;79.00
2441;DHT22;1231;53.988;9.470;2023-02-28T00:42:24;5.90;79.00
2441;DHT22;1231;53.988;9.470;2023-02-28T00:45:15;5.90;79.00
2441;DHT22;1231;53.988;9.470;2023-02-28T00:48:06;5.90;78.90
2441;DHT22;1231;53.988;9.470;2023-02-28T00:50:57;5.90;78.90
2441;DHT22;1231;53.988;9.470;2023-02-28T00:53:48;5.90;79.00
2441;DHT22;1231;53.988;9.470;2023-02-28T00:56:38;5.90;78.90
2441;DHT22;1231;53.988;9.470;2023-02-28T00:59:29;5.90;78.90
2441;DHT22;1231;53.988;9.470;2023-02-28T01:02:21;5.80;78.90
2441;DHT22;1231;53.988;9.470;2023-02-28T01:05:12;5.80;79.00
2441;DHT22;1231;53.988;9.470;2023-02-28T01:08:04;5.80;78.90
2441;DHT22;1231;53.988;9.470;2023-02-28T01:10:55;5.80;78.90
2441;DHT22;1231;53.988;9.470;2023-02-28T01:13:47;5.80;78.90
2441;DHT22;1231;53.988;9.470;2023-02-28T01:16:38;5.80;78.90
2441;DHT22;1231;53.988;9.470;2023-02-28T01:19:28;5.80;78.90
2441;DHT22;1231;53.988;9.470;2023-02-28T01:22:19;5.80;79.00
2441;DHT22;1231;53.988;9.470;2023-02-28T01:25:10;5.80;79.00
2441;DHT22;1231;53.988;9.470;2023-02-28T01:28:01;5.80;79.00
2441;DHT22;1231;53.988;9.470;2023-02-28T01:30:52;5.80;79.10
2441;DHT22;1231;53.988;9.470;2023-02-28T01:33:44;5.80;79.10
2441;DHT22;1231;53.988;9.470;2023-02-28T01:36:35;5.80;79.20
2441;DHT22;1231;53.988;9.470;2023-02-28T01:39:27;5.80;79.20
2441;DHT22;1231;53.988;9.470;2023-02-28T01:42:17;5.80;79.20
2441;DHT22;1231;53.988;9.470;2023-02-28T01:48:08;5.80;79.20
2441;DHT22;1231;53.988;9.470;2023-02-28T01:51:04;5.80;79.20
2441;DHT22;1231;53.988;9.470;2023-02-28T01:54:00;5.80;79.20
2441;DHT22;1231;53.988;9.470;2023-02-28T01:57:04;5.70;79.20
2441;DHT22;1231;53.988;9.470;2023-02-28T02:00:24;5.60;79.20
2441;DHT22;1231;53.988;9.470;2023-02-28T02:03:15;5.60;79.40
2441;DHT22;1231;53.988;9.470;2023-02-28T02:06:09;5.60;79.40
2441;DHT22;1231;53.988;9.470;2023-02-28T02:09:00;5.70;79.30
2441;DHT22;1231;53.988;9.470;2023-02-28T02:11:51;5.70;79.30
2441;DHT22;1231;53.988;9.470;2023-02-28T02:15:02;5.70;79.30
2441;DHT22;1231;53.988;9.470;2023-02-28T02:17:59;5.80;79.30
2441;DHT22;1231;53.988;9.470;2023-02-28T02:21:01;5.70;79.20
2441;DHT22;1231;53.988;9.470;2023-02-28T02:24:29;5.70;79.30
2441;DHT22;1231;53.988;9.470;2023-02-28T02:27:39;5.70;79.30
2441;DHT22;1231;53.988;9.470;2023-02-28T02:38:18;5.70;79.20
2441;DHT22;1231;53.988;9.470;2023-02-28T02:44:16;5.70;79.30
2441;DHT22;1231;53.988;9.470;2023-02-28T02:47:13;5.70;79.30
2441;DHT22;1231;53.988;9.470;2023-02-28T02:50:08;5.70;79.30
2441;DHT22;1231;53.988;9.470;2023-02-28T02:53:03;5.70;79.40
2441;DHT22;1231;53.988;9.470;2023-02-28T02:55:56;5.60;79.40
2441;DHT22;1231;53.988;9.470;2023-02-28T02:58:48;5.60;79.70
2441;DHT22;1231;53.988;9.470;2023-02-28T03:01:41;5.60;79.90
2441;DHT22;1231;53.988;9.470;2023-02-28T03:04:36;5.60;80.00
2441;DHT22;1231;53.988;9.470;2023-02-28T03:07:28;5.60;80.00
2441;DHT22;1231;53.988;9.470;2023-02-28T03:10:36;5.60;80.00
2441;DHT22;1231;53.988;9.470;2023-02-28T03:13:52;5.50;80.00
2441;DHT22;1231;53.988;9.470;2023-02-28T03:23:38;5.40;80.10
2441;DHT22;1231;53.988;9.470;2023-02-28T03:26:34;5.40;80.30
2441;DHT22;1231;53.988;9.470;2023-02-28T03:32:33;5.30;80.20
2441;DHT22;1231;53.988;9.470;2023-02-28T03:35:29;5.30;80.20
2441;DHT22;1231;53.988;9.470;2023-02-28T03:38:38;5.20;80.40
2441;DHT22;1231;53.988;9.470;2023-02-28T03:41:35;5.30;80.30
2441;DHT22;1231;53.988;9.470;2023-02-28T03:44:41;5.30;80.20
2441;DHT22;1231;53.988;9.470;2023-02-28T03:47:49;5.30;80.10
2441;DHT22;1231;53.988;9.470;2023-02-28T03:50:44;5.30;80.10
2441;DHT22;1231;53.988;9.470;2023-02-28T03:53:39;5.30;80.00
2441;DHT22;1231;53.988;9.470;2023-02-28T03:56:42;5.30;79.90
2441;DHT22;1231;53.988;9.470;2023-02-28T04:02:27;5.20;79.90
2441;DHT22;1231;53.988;9.470;2023-02-28T04:05:20;5.20;79.90
2441;DHT22;1231;53.988;9.470;2023-02-28T04:08:11;5.20;79.90
2441;DHT22;1231;53.988;9.470;2023-02-28T04:11:18;5.20;79.90
2441;DHT22;1231;53.988;9.470;2023-02-28T04:14:10;5.10;79.90
2441;DHT22;1231;53.988;9.470;2023-02-28T04:17:01;5.10;79.90
2441;DHT22;1231;53.988;9.470;2023-02-28T04:19:52;5.00;79.90
2441;DHT22;1231;53.988;9.470;2023-02-28T04:22:44;5.00;80.00
2441;DHT22;1231;53.988;9.470;2023-02-28T04:25:35;4.90;79.90
2441;DHT22;1231;53.988;9.470;2023-02-28T04:28:26;4.80;79.70
2441;DHT22;1231;53.988;9.470;2023-02-28T04:31:17;4.70;79.60
2441;DHT22;1231;53.988;9.470;2023-02-28T04:34:08;4.60;79.70
2441;DHT22;1231;53.988;9.470;2023-02-28T04:36:59;4.40;80.00
2441;DHT22;1231;53.988;9.470;2023-02-28T04:39:51;4.40;80.40
2441;DHT22;1231;53.988;9.470;2023-02-28T04:42:42;4.30;80.50
2441;DHT22;1231;53.988;9.470;2023-02-28T04:45:32;4.30;80.60
2441;DHT22;1231;53.988;9.470;2023-02-28T04:48:25;4.30;80.70
2441;DHT22;1231;53.988;9.470;2023-02-28T04:51:18;4.30;80.70
2441;DHT22;1231;53.988;9.470;2023-02-28T04:54:09;4.30;80.80
2441;DHT22;1231;53.988;9.470;2023-02-28T04:57:00;4.30;80.90
2441;DHT22;1231;53.988;9.470;2023-02-28T04:59:52;4.40;81.00
2441;DHT22;1231;53.988;9.470;2023-02-28T05:02:43;4.40;81.10
2441;DHT22;1231;53.988;9.470;2023-02-28T05:05:33;4.40;81.10
2441;DHT22;1231;53.988;9.470;2023-02-28T05:08:24;4.40;81.10
2441;DHT22;1231;53.988;9.470;2023-02-28T05:11:27;4.40;81.00
2441;DHT22;1231;53.988;9.470;2023-02-28T05:14:25;4.40;81.00
2441;DHT22;1231;53.988;9.470;2023-02-28T05:17:16;4.40;81.20
2441;DHT22;1231;53.988;9.470;2023-02-28T05:20:08;4.30;81.10
2441;DHT22;1231;53.988;9.470;2023-02-28T05:23:01;4.30;81.00
2441;DHT22;1231;53.988;9.470;2023-02-28T05:25:52;4.20;80.80
2441;DHT22;1231;53.988;9.470;2023-02-28T05:28:43;4.00;80.70
2441;DHT22;1231;53.988;9.470;2023-02-28T05:31:34;3.90;80.60
2441;DHT22;1231;53.988;9.470;2023-02-28T05:34:25;3.80;80.60
2441;DHT22;1231;53.988;9.470;2023-02-28T05:37:16;3.60;80.60
2441;DHT22;1231;53.988;9.470;2023-02-28T05:40:08;3.50;80.60
2441;DHT22;1231;53.988;9.470;2023-02-28T05:43:02;3.40;80.60
2441;DHT22;1231;53.988;9.470;2023-02-28T05:45:53;3.30;80.90
2441;DHT22;1231;53.988;9.470;2023-02-28T05:48:47;3.20;81.20
2441;DHT22;1231;53.988;9.470;2023-02-28T05:51:38;3.10;81.30
2441;DHT22;1231;53.988;9.470;2023-02-28T05:54:30;3.00;81.40
2441;DHT22;1231;53.988;9.470;2023-02-28T05:57:22;2.90;81.40
2441;DHT22;1231;53.988;9.470;2023-02-28T06:00:13;2.80;81.40
2441;DHT22;1231;53.988;9.470;2023-02-28T06:03:06;2.70;81.50
2441;DHT22;1231;53.988;9.470;2023-02-28T06:05:57;2.60;81.80
2441;DHT22;1231;53.988;9.470;2023-02-28T06:08:49;2.60;82.00
2441;DHT22;1231;53.988;9.470;2023-02-28T06:11:40;2.50;82.20
2441;DHT22;1231;53.988;9.470;2023-02-28T06:14:32;2.50;82.50
2441;DHT22;1231;53.988;9.470;2023-02-28T06:17:23;2.40;82.60
2441;DHT22;1231;53.988;9.470;2023-02-28T06:20:14;2.40;82.90
2441;DHT22;1231;53.988;9.470;2023-02-28T06:23:05;2.40;83.20
2441;DHT22;1231;53.988;9.470;2023-02-28T06:25:56;2.30;83.10
2441;DHT22;1231;53.988;9.470;2023-02-28T06:28:50;2.30;83.10
2441;DHT22;1231;53.988;9.470;2023-02-28T06:31:41;2.20;83.20
2441;DHT22;1231;53.988;9.470;2023-02-28T06:34:32;2.20;83.30
2441;DHT22;1231;53.988;9.470;2023-02-28T06:37:24;2.20;83.20
2441;DHT22;1231;53.988;9.470;2023-02-28T06:40:18;2.20;83.10
2441;DHT22;1231;53.988;9.470;2023-02-28T06:43:09;2.10;82.90
2441;DHT22;1231;53.988;9.470;2023-02-28T06:46:06;2.10;82.70
2441;DHT22;1231;53.988;9.470;2023-02-28T06:48:57;2.10;82.70
2441;DHT22;1231;53.988;9.470;2023-02-28T06:51:48;2.00;82.60
2441;DHT22;1231;53.988;9.470;2023-02-28T06:54:39;2.00;82.70
2441;DHT22;1231;53.988;9.470;2023-02-28T06:57:30;2.00;83.20
2441;DHT22;1231;53.988;9.470;2023-02-28T07:00:22;2.00;83.30
2441;DHT22;1231;53.988;9.470;2023-02-28T07:03:13;2.10;83.60
2441;DHT22;1231;53.988;9.470;2023-02-28T07:06:06;2.10;83.70
2441;DHT22;1231;53.988;9.470;2023-02-28T07:08:58;2.20;83.80
2441;DHT22;1231;53.988;9.470;2023-02-28T07:11:49;2.20;84.10
2441;DHT22;1231;53.988;9.470;2023-02-28T07:14:40;2.30;84.20
2441;DHT22;1231;53.988;9.470;2023-02-28T07:17:30;2.40;84.20
2441;DHT22;1231;53.988;9.470;2023-02-28T07:20:22;2.50;84.20
2441;DHT22;1231;53.988;9.470;2023-02-28T07:23:16;2.60;84.10
2441;DHT22;1231;53.988;9.470;2023-02-28T07:26:12;2.60;84.00
2441;DHT22;1231;53.988;9.470;2023-02-28T07:29:05;2.70;84.20
2441;DHT22;1231;53.988;9.470;2023-02-28T07:31:56;2.80;84.10
2441;DHT22;1231;53.988;9.470;2023-02-28T07:34:47;2.90;84.00
2441;DHT22;1231;53.988;9.470;2023-02-28T07:37:39;3.00;84.00
2441;DHT22;1231;53.988;9.470;2023-02-28T07:40:30;3.10;83.90
2441;DHT22;1231;53.988;9.470;2023-02-28T07:43:21;3.30;83.80
2441;DHT22;1231;53.988;9.470;2023-02-28T07:46:14;3.40;83.70
2441;DHT22;1231;53.988;9.470;2023-02-28T07:49:08;3.50;83.70
2441;DHT22;1231;53.988;9.470;2023-02-28T07:51:59;3.60;84.10
2441;DHT22;1231;53.988;9.470;2023-02-28T07:54:51;3.80;84.30
2441;DHT22;1231;53.988;9.470;2023-02-28T07:57:42;4.00;84.40
2441;DHT22;1231;53.988;9.470;2023-02-28T08:00:33;4.20;84.40
2441;DHT22;1231;53.988;9.470;2023-02-28T08:03:24;4.30;84.30
2441;DHT22;1231;53.988;9.470;2023-02-28T08:06:21;4.50;84.10
2441;DHT22;1231;53.988;9.470;2023-02-28T08:09:12;4.70;83.90
2441;DHT22;1231;53.988;9.470;2023-02-28T08:12:03;4.80;83.60
2441;DHT22;1231;53.988;9.470;2023-02-28T08:14:54;5.00;83.40
2441;DHT22;1231;53.988;9.470;2023-02-28T08:17:45;5.10;83.00
2441;DHT22;1231;53.988;9.470;2023-02-28T08:20:36;5.30;82.50
2441;DHT22;1231;53.988;9.470;2023-02-28T08:23:26;5.40;81.90
2441;DHT22;1231;53.988;9.470;2023-02-28T08:26:18;5.50;81.40
2441;DHT22;1231;53.988;9.470;2023-02-28T08:29:09;5.70;81.00
2441;DHT22;1231;53.988;9.470;2023-02-28T08:32:00;5.80;80.50
2441;DHT22;1231;53.988;9.470;2023-02-28T08:34:51;6.00;79.90
2441;DHT22;1231;53.988;9.470;2023-02-28T08:37:42;6.10;79.40
2441;DHT22;1231;53.988;9.470;2023-02-28T08:40:33;6.20;79.00
2441;DHT22;1231;53.988;9.470;2023-02-28T08:43:24;6.30;78.30
2441;DHT22;1231;53.988;9.470;2023-02-28T08:46:15;6.50;77.80
2441;DHT22;1231;53.988;9.470;2023-02-28T08:49:06;6.60;77.20
2441;DHT22;1231;53.988;9.470;2023-02-28T08:51:57;6.60;76.40
2441;DHT22;1231;53.988;9.470;2023-02-28T08:54:48;6.80;76.10
2441;DHT22;1231;53.988;9.470;2023-02-28T08:57:40;6.80;75.40
2441;DHT22;1231;53.988;9.470;2023-02-28T09:00:30;6.90;75.00
2441;DHT22;1231;53.988;9.470;2023-02-28T09:03:22;7.00;74.60
2441;DHT22;1231;53.988;9.470;2023-02-28T09:06:14;7.10;74.20
2441;DHT22;1231;53.988;9.470;2023-02-28T09:09:06;7.20;73.50
2441;DHT22;1231;53.988;9.470;2023-02-28T09:11:58;7.30;72.90
2441;DHT22;1231;53.988;9.470;2023-02-28T09:14:49;7.40;72.70
2441;DHT22;1231;53.988;9.470;2023-02-28T09:17:40;7.50;72.50
2441;DHT22;1231;53.988;9.470;2023-02-28T09:20:30;7.60;72.30
2441;DHT22;1231;53.988;9.470;2023-02-28T09:23:22;7.80;71.90
2441;DHT22;1231;53.988;9.470;2023-02-28T09:26:24;7.80;71.30
2441;DHT22;1231;53.988;9.470;2023-02-28T09:29:15;7.90;70.50
2441;DHT22;1231;53.988;9.470;2023-02-28T09:32:07;8.00;69.90
2441;DHT22;1231;53.988;9.470;2023-02-28T09:35:02;8.00;69.50
2441;DHT22;1231;53.988;9.470;2023-02-28T09:37:56;8.10;69.30
2441;DHT22;1231;53.988;9.470;2023-02-28T09:40:53;8.20;69.00
2441;DHT22;1231;53.988;9.470;2023-02-28T09:43:47;8.30;68.40
2441;DHT22;1231;53.988;9.470;2023-02-28T09:46:53;8.30;68.10
2441;DHT22;1231;53.988;9.470;2023-02-28T09:49:47;8.40;68.00
2441;DHT22;1231;53.988;9.470;2023-02-28T09:52:39;8.50;67.30
2441;DHT22;1231;53.988;9.470;2023-02-28T09:55:39;8.60;66.60
2441;DHT22;1231;53.988;9.470;2023-02-28T10:01:52;8.70;65.90
2441;DHT22;1231;53.988;9.470;2023-02-28T10:04:56;8.70;65.60
2441;DHT22;1231;53.988;9.470;2023-02-28T10:10:53;8.90;65.00
2441;DHT22;1231;53.988;9.470;2023-02-28T10:13:56;8.90;64.10
2441;DHT22;1231;53.988;9.470;2023-02-28T10:16:55;9.00;64.10
2441;DHT22;1231;53.988;9.470;2023-02-28T10:20:11;9.00;64.00
2441;DHT22;1231;53.988;9.470;2023-02-28T10:26:12;9.20;62.00
2441;DHT22;1231;53.988;9.470;2023-02-28T10:29:04;9.30;61.70
2441;DHT22;1231;53.988;9.470;2023-02-28T10:31:55;9.40;60.90
2441;DHT22;1231;53.988;9.470;2023-02-28T10:34:55;9.40;59.80
2441;DHT22;1231;53.988;9.470;2023-02-28T10:37:50;9.40;59.60
2441;DHT22;1231;53.988;9.470;2023-02-28T10:40:41;9.50;59.40
2441;DHT22;1231;53.988;9.470;2023-02-28T10:43:32;9.50;59.70
2441;DHT22;1231;53.988;9.470;2023-02-28T10:46:24;9.60;60.20
2441;DHT22;1231;53.988;9.470;2023-02-28T10:49:24;9.50;59.60
2441;DHT22;1231;53.988;9.470;2023-02-28T10:52:37;9.50;59.60
2441;DHT22;1231;53.988;9.470;2023-02-28T10:55:29;9.50;59.90
2441;DHT22;1231;53.988;9.470;2023-02-28T10:58:25;9.50;60.20
2441;DHT22;1231;53.988;9.470;2023-02-28T11:07:19;9.50;59.60
2441;DHT22;1231;53.988;9.470;2023-02-28T11:10:19;9.50;59.70
2441;DHT22;1231;53.988;9.470;2023-02-28T11:13:20;9.60;59.50
2441;DHT22;1231;53.988;9.470;2023-02-28T11:16:14;9.60;59.70
2441;DHT22;1231;53.988;9.470;2023-02-28T11:19:23;9.60;59.80
2441;DHT22;1231;53.988;9.470;2023-02-28T11:22:21;9.70;60.00
2441;DHT22;1231;53.988;9.470;2023-02-28T11:25:24;9.80;59.70
2441;DHT22;1231;53.988;9.470;2023-02-28T11:28:34;9.80;59.90
2441;DHT22;1231;53.988;9.470;2023-02-28T11:31:25;9.90;60.00
2441;DHT22;1231;53.988;9.470;2023-02-28T11:34:25;9.90;59.90
2441;DHT22;1231;53.988;9.470;2023-02-28T11:37:18;10.00;60.00
2441;DHT22;1231;53.988;9.470;2023-02-28T11:40:15;10.00;59.80
2441;DHT22;1231;53.988;9.470;2023-02-28T11:46:30;10.10;59.20
2441;DHT22;1231;53.988;9.470;2023-02-28T12:13:46;10.00;58.20
2441;DHT22;1231;53.988;9.470;2023-02-28T12:16:52;10.10;58.70
2441;DHT22;1231;53.988;9.470;2023-02-28T12:20:21;10.20;58.70
2441;DHT22;1231;53.988;9.470;2023-02-28T12:23:37;10.40;58.30
2441;DHT22;1231;53.988;9.470;2023-02-28T12:26:43;10.50;58.20
2441;DHT22;1231;53.988;9.470;2023-02-28T12:29:48;10.70;57.80
2441;DHT22;1231;53.988;9.470;2023-02-28T12:32:44;10.80;57.40
2441;DHT22;1231;53.988;9.470;2023-02-28T12:35:44;10.80;57.20
2441;DHT22;1231;53.988;9.470;2023-02-28T12:38:43;10.80;57.30
2441;DHT22;1231;53.988;9.470;2023-02-28T12:41:41;10.80;57.50
2441;DHT22;1231;53.988;9.470;2023-02-28T12:44:44;10.80;57.50
2441;DHT22;1231;53.988;9.470;2023-02-28T12:47:38;10.80;57.20
2441;DHT22;1231;53.988;9.470;2023-02-28T12:50:32;10.70;56.90
2441;DHT22;1231;53.988;9.470;2023-02-28T12:54:04;10.70;56.60
2441;DHT22;1231;53.988;9.470;2023-02-28T12:57:22;10.80;56.70
2441;DHT22;1231;53.988;9.470;2023-02-28T13:00:18;10.80;55.60
2441;DHT22;1231;53.988;9.470;2023-02-28T13:03:18;10.70;56.40
2441;DHT22;1231;53.988;9.470;2023-02-28T13:06:21;10.70;56.20
2441;DHT22;1231;53.988;9.470;2023-02-28T13:09:15;10.80;55.90
2441;DHT22;1231;53.988;9.470;2023-02-28T13:12:14;10.80;55.80
2441;DHT22;1231;53.988;9.470;2023-02-28T13:15:20;10.60;55.20
2441;DHT22;1231;53.988;9.470;2023-02-28T13:18:38;10.30;54.70
2441;DHT22;1231;53.988;9.470;2023-02-28T13:21:30;10.30;55.40
2441;DHT22;1231;53.988;9.470;2023-02-28T13:27:34;10.20;55.70
2441;DHT22;1231;53.988;9.470;2023-02-28T13:36:47;10.10;55.80
2441;DHT22;1231;53.988;9.470;2023-02-28T13:45:35;10.10;55.60
2441;DHT22;1231;53.988;9.470;2023-02-28T13:48:29;10.00;56.10
2441;DHT22;1231;53.988;9.470;2023-02-28T13:51:47;10.00;56.20
2441;DHT22;1231;53.988;9.470;2023-02-28T14:09:39;10.20;56.50
2441;DHT22;1231;53.988;9.470;2023-02-28T14:16:04;10.30;56.80
2441;DHT22;1231;53.988;9.470;2023-02-28T14:19:00;10.30;56.30
2441;DHT22;1231;53.988;9.470;2023-02-28T14:31:44;10.40;56.70
2441;DHT22;1231;53.988;9.470;2023-02-28T14:34:58;10.40;56.70
2441;DHT22;1231;53.988;9.470;2023-02-28T14:37:53;10.50;56.80
2441;DHT22;1231;53.988;9.470;2023-02-28T14:40:46;10.50;56.70
2441;DHT22;1231;53.988;9.470;2023-02-28T14:43:48;10.50;55.30
2441;DHT22;1231;53.988;9.470;2023-02-28T14:46:41;10.40;55.50
2441;DHT22;1231;53.988;9.470;2023-02-28T14:49:41;10.40;55.70
2441;DHT22;1231;53.988;9.470;2023-02-28T14:52:33;10.40;56.00
2441;DHT22;1231;53.988;9.470;2023-02-28T14:55:33;10.40;56.00
2441;DHT22;1231;53.988;9.470;2023-02-28T14:58:27;10.40;56.00
2441;DHT22;1231;53.988;9.470;2023-02-28T15:01:21;10.40;55.80
2441;DHT22;1231;53.988;9.470;2023-02-28T15:04:22;10.40;55.50
2441;DHT22;1231;53.988;9.470;2023-02-28T15:07:15;10.30;55.80
2441;DHT22;1231;53.988;9.470;2023-02-28T15:10:20;10.30;56.20
2441;DHT22;1231;53.988;9.470;2023-02-28T15:13:14;10.30;56.30
2441;DHT22;1231;53.988;9.470;2023-02-28T15:16:19;10.30;56.60
2441;DHT22;1231;53.988;9.470;2023-02-28T15:19:26;10.30;56.30
2441;DHT22;1231;53.988;9.470;2023-02-28T15:22:43;10.20;56.10
2441;DHT22;1231;53.988;9.470;2023-02-28T15:25:33;10.20;56.10
2441;DHT22;1231;53.988;9.470;2023-02-28T15:28:24;10.20;56.40
2441;DHT22;1231;53.988;9.470;2023-02-28T15:31:27;10.20;56.40
2441;DHT22;1231;53.988;9.470;2023-02-28T15:34:22;10.20;56.70
2441;DHT22;1231;53.988;9.470;2023-02-28T15:40:37;10.10;56.70
2441;DHT22;1231;53.988;9.470;2023-02-28T15:43:30;10.00;56.80
2441;DHT22;1231;53.988;9.470;2023-02-28T15:46:22;9.90;57.00
2441;DHT22;1231;53.988;9.470;2023-02-28T15:49:19;9.90;57.20
2441;DHT22;1231;53.988;9.470;2023-02-28T15:52:21;9.90;57.50
2441;DHT22;1231;53.988;9.470;2023-02-28T15:55:20;9.80;57.80
2441;DHT22;1231;53.988;9.470;2023-02-28T15:58:12;9.80;58.10
2441;DHT22;1231;53.988;9.470;2023-02-28T16:01:16;9.70;58.40
2441;DHT22;1231;53.988;9.470;2023-02-28T16:04:17;9.60;58.70
2441;DHT22;1231;53.988;9.470;2023-02-28T16:07:12;9.50;59.20
2441;DHT22;1231;53.988;9.470;2023-02-28T16:10:05;9.40;59.60
2441;DHT22;1231;53.988;9.470;2023-02-28T16:12:57;9.40;59.90
2441;DHT22;1231;53.988;9.470;2023-02-28T16:15:48;9.30;60.40
2441;DHT22;1231;53.988;9.470;2023-02-28T16:18:41;9.10;60.80
2441;DHT22;1231;53.988;9.470;2023-02-28T16:21:33;9.00;61.20
2441;DHT22;1231;53.988;9.470;2023-02-28T16:24:24;8.90;61.60
2441;DHT22;1231;53.988;9.470;2023-02-28T16:27:33;8.70;62.00
2441;DHT22;1231;53.988;9.470;2023-02-28T16:30:27;8.60;62.20
2441;DHT22;1231;53.988;9.470;2023-02-28T16:33:18;8.40;62.70
2441;DHT22;1231;53.988;9.470;2023-02-28T16:36:17;8.30;63.10
2441;DHT22;1231;53.988;9.470;2023-02-28T16:39:08;8.10;63.40
2441;DHT22;1231;53.988;9.470;2023-02-28T16:41:59;7.90;64.10
2441;DHT22;1231;53.988;9.470;2023-02-28T16:44:50;7.80;64.60
2441;DHT22;1231;53.988;9.470;2023-02-28T16:47:42;7.60;65.10
2441;DHT22;1231;53.988;9.470;2023-02-28T16:50:33;7.50;65.80
2441;DHT22;1231;53.988;9.470;2023-02-28T16:53:24;7.30;66.30
2441;DHT22;1231;53.988;9.470;2023-02-28T16:56:18;7.10;66.40
2441;DHT22;1231;53.988;9.470;2023-02-28T16:59:10;6.90;66.80
2441;DHT22;1231;53.988;9.470;2023-02-28T17:02:07;6.80;67.10
2441;DHT22;1231;53.988;9.470;2023-02-28T17:05:01;6.60;67.30
2441;DHT22;1231;53.988;9.470;2023-02-28T17:07:52;6.50;68.00
2441;DHT22;1231;53.988;9.470;2023-02-28T17:10:43;6.30;68.30
2441;DHT22;1231;53.988;9.470;2023-02-28T17:13:34;6.20;68.50
2441;DHT22;1231;53.988;9.470;2023-02-28T17:16:32;6.10;68.70
2441;DHT22;1231;53.988;9.470;2023-02-28T17:19:23;6.00;68.70
2441;DHT22;1231;53.988;9.470;2023-02-28T17:22:14;5.80;69.20
2441;DHT22;1231;53.988;9.470;2023-02-28T17:25:05;5.70;69.70
2441;DHT22;1231;53.988;9.470;2023-02-28T17:27:56;5.60;70.10
2441;DHT22;1231;53.988;9.470;2023-02-28T17:30:48;5.50;70.30
2441;DHT22;1231;53.988;9.470;2023-02-28T17:33:39;5.40;70.50
2441;DHT22;1231;53.988;9.470;2023-02-28T17:36:30;5.30;70.70
2441;DHT22;1231;53.988;9.470;2023-02-28T17:39:24;5.20;71.00
2441;DHT22;1231;53.988;9.470;2023-02-28T17:42:15;5.20;71.20
2441;DHT22;1231;53.988;9.470;2023-02-28T17:45:06;5.10;71.30
2441;DHT22;1231;53.988;9.470;2023-02-28T17:47:57;5.00;71.50
2441;DHT22;1231;53.988;9.470;2023-02-28T17:50:48;5.00;71.60
2441;DHT22;1231;53.988;9.470;2023-02-28T17:53:39;4.90;71.60
2441;DHT22;1231;53.988;9.470;2023-02-28T17:56:31;4.80;71.80
2441;DHT22;1231;53.988;9.470;2023-02-28T17:59:21;4.70;72.20
2441;DHT22;1231;53.988;9.470;2023-02-28T18:02:13;4.60;72.50
2441;DHT22;1231;53.988;9.470;2023-02-28T18:05:04;4.50;72.70
2441;DHT22;1231;53.988;9.470;2023-02-28T18:07:56;4.50;73.00
2441;DHT22;1231;53.988;9.470;2023-02-28T18:10:47;4.40;73.20
2441;DHT22;1231;53.988;9.470;2023-02-28T18:13:38;4.30;73.30
2441;DHT22;1231;53.988;9.470;2023-02-28T18:16:29;4.30;73.60
2441;DHT22;1231;53.988;9.470;2023-02-28T18:19:20;4.20;73.80
2441;DHT22;1231;53.988;9.470;2023-02-28T18:22:11;4.20;74.10
2441;DHT22;1231;53.988;9.470;2023-02-28T18:25:04;4.10;74.20
2441;DHT22;1231;53.988;9.470;2023-02-28T18:27:55;4.10;74.60
2441;DHT22;1231;53.988;9.470;2023-02-28T18:30:49;4.10;74.60
2441;DHT22;1231;53.988;9.470;2023-02-28T18:33:40;4.00;74.80
2441;DHT22;1231;53.988;9.470;2023-02-28T18:36:31;4.00;74.70
2441;DHT22;1231;53.988;9.470;2023-02-28T18:39:22;3.90;74.80
2441;DHT22;1231;53.988;9.470;2023-02-28T18:42:13;3.90;74.90
2441;DHT22;1231;53.988;9.470;2023-02-28T18:45:05;3.80;75.10
2441;DHT22;1231;53.988;9.470;2023-02-28T18:47:56;3.70;75.40
2441;DHT22;1231;53.988;9.470;2023-02-28T18:50:50;3.70;75.60
2441;DHT22;1231;53.988;9.470;2023-02-28T18:53:41;3.60;75.80
2441;DHT22;1231;53.988;9.470;2023-02-28T18:56:32;3.60;75.80
2441;DHT22;1231;53.988;9.470;2023-02-28T18:59:26;3.50;75.90
2441;DHT22;1231;53.988;9.470;2023-02-28T19:02:17;3.50;76.20
2441;DHT22;1231;53.988;9.470;2023-02-28T19:05:08;3.50;76.40
2441;DHT22;1231;53.988;9.470;2023-02-28T19:08:02;3.40;76.30
2441;DHT22;1231;53.988;9.470;2023-02-28T19:10:54;3.40;76.40
2441;DHT22;1231;53.988;9.470;2023-02-28T19:13:46;3.30;76.50
2441;DHT22;1231;53.988;9.470;2023-02-28T19:16:37;3.20;76.80
2441;DHT22;1231;53.988;9.470;2023-02-28T19:19:28;3.20;77.10
2441;DHT22;1231;53.988;9.470;2023-02-28T19:22:19;3.20;77.30
2441;DHT22;1231;53.988;9.470;2023-02-28T19:25:10;3.10;77.50
2441;DHT22;1231;53.988;9.470;2023-02-28T19:28:01;3.10;78.00
2441;DHT22;1231;53.988;9.470;2023-02-28T19:30:52;3.20;78.80
2441;DHT22;1231;53.988;9.470;2023-02-28T19:33:43;3.20;78.90
2441;DHT22;1231;53.988;9.470;2023-02-28T19:36:34;3.20;78.90
2441;DHT22;1231;53.988;9.470;2023-02-28T19:39:28;3.20;79.10
2441;DHT22;1231;53.988;9.470;2023-02-28T19:42:19;3.20;79.50
2441;DHT22;1231;53.988;9.470;2023-02-28T19:45:10;3.30;80.50
2441;DHT22;1231;53.988;9.470;2023-02-28T19:48:04;3.30;80.40
2441;DHT22;1231;53.988;9.470;2023-02-28T19:51:06;3.20;80.10
2441;DHT22;1231;53.988;9.470;2023-02-28T19:53:58;3.20;80.20
2441;DHT22;1231;53.988;9.470;2023-02-28T19:56:49;3.20;80.10
2441;DHT22;1231;53.988;9.470;2023-02-28T19:59:41;3.10;79.80
2441;DHT22;1231;53.988;9.470;2023-02-28T20:02:32;3.10;79.40
2441;DHT22;1231;53.988;9.470;2023-02-28T20:05:23;3.00;79.20
2441;DHT22;1231;53.988;9.470;2023-02-28T20:08:14;2.90;79.10
2441;DHT22;1231;53.988;9.470;2023-02-28T20:11:10;2.80;79.30
2441;DHT22;1231;53.988;9.470;2023-02-28T20:14:01;2.70;79.40
2441;DHT22;1231;53.988;9.470;2023-02-28T20:16:55;2.70;79.60
2441;DHT22;1231;53.988;9.470;2023-02-28T20:19:46;2.60;79.80
2441;DHT22;1231;53.988;9.470;2023-02-28T20:22:40;2.60;79.80
2441;DHT22;1231;53.988;9.470;2023-02-28T20:25:31;2.50;79.90
2441;DHT22;1231;53.988;9.470;2023-02-28T20:28:22;2.50;80.10
2441;DHT22;1231;53.988;9.470;2023-02-28T20:31:26;2.40;80.60
2441;DHT22;1231;53.988;9.470;2023-02-28T20:34:18;2.50;81.10
2441;DHT22;1231;53.988;9.470;2023-02-28T20:37:09;2.50;81.60
2441;DHT22;1231;53.988;9.470;2023-02-28T20:40:00;2.50;81.60
2441;DHT22;1231;53.988;9.470;2023-02-28T20:42:54;2.50;81.70
2441;DHT22;1231;53.988;9.470;2023-02-28T20:45:52;2.40;81.60
2441;DHT22;1231;53.988;9.470;2023-02-28T20:48:44;2.40;81.50
2441;DHT22;1231;53.988;9.470;2023-02-28T20:51:35;2.40;81.70
2441;DHT22;1231;53.988;9.470;2023-02-28T20:54:29;2.40;81.50
2441;DHT22;1231;53.988;9.470;2023-02-28T20:57:20;2.40;81.70
2441;DHT22;1231;53.988;9.470;2023-02-28T21:00:12;2.30;81.60
2441;DHT22;1231;53.988;9.470;2023-02-28T21:03:05;2.30;81.40
2441;DHT22;1231;53.988;9.470;2023-02-28T21:06:00;2.20;81.30
2441;DHT22;1231;53.988;9.470;2023-02-28T21:08:52;2.20;81.10
2441;DHT22;1231;53.988;9.470;2023-02-28T21:11:43;2.10;81.10